Time;durP1;ratioP1;P1;durP2;ratioP2;P2;SDS_P1;SDS_P2;PMS_P1;PMS_P2;Temp;Humidity;BMP_temperature;BMP_pressure;BME280_temperature;BME280_humidity;BME280_pressure;Samples;Min_cycle;Max_cycle;Signal;HPM_P1;HPM_P2
2021/12/18 00:02:03;;;;;;;6.67;4.57;;;6.50;68.20;;;;;;4995398;28;20034;-65
2021/12/18 00:04:28;;;;;;;8.83;5.00;;;6.60;68.40;;;;;;4995421;28;20479;-67
2021/12/18 00:06:55;;;;;;;9.60;4.67;;;6.60;68.30;;;;;;4994646;28;20025;-66
2021/12/18 00:09:21;;;;;;;7.37;4.53;;;6.60;68.60;;;;;;4995479;28;20030;-66
2021/12/18 00:11:48;;;;;;;7.53;5.00;;;6.60;68.50;;;;;;4995378;28;20026;-66
2021/12/18 00:14:14;;;;;;;8.67;4.97;;;6.60;68.30;;;;;;4995145;28;20467;-66
2021/12/18 00:16:40;;;;;;;7.03;4.80;;;6.60;68.50;;;;;;4995292;28;20036;-66
2021/12/18 00:19:06;;;;;;;8.13;4.63;;;6.60;68.70;;;;;;4994963;28;20117;-66
2021/12/18 00:21:36;;;;;;;10.33;4.87;;;6.60;68.40;;;;;;4995293;28;20034;-66
2021/12/18 00:24:06;;;;;;;9.13;5.50;;;6.60;68.10;;;;;;4994895;28;20471;-65
2021/12/18 00:26:32;;;;;;;8.37;5.37;;;6.60;68.30;;;;;;4994901;28;20030;-66
2021/12/18 00:28:59;;;;;;;7.87;5.17;;;6.60;68.30;;;;;;4994999;28;20061;-66
2021/12/18 00:31:25;;;;;;;9.10;5.57;;;6.60;67.90;;;;;;4994969;28;20077;-66
2021/12/18 00:33:50;;;;;;;9.90;4.90;;;6.60;68.20;;;;;;4994658;28;20054;-66
2021/12/18 00:36:16;;;;;;;7.70;5.60;;;6.60;68.20;;;;;;4994985;28;20050;-65
2021/12/18 00:38:42;;;;;;;7.57;5.10;;;6.70;68.30;;;;;;4994764;28;20034;-66
2021/12/18 00:44:01;;;;;;;10.30;4.80;;;6.60;68.40;;;;;;4994436;28;20423;-66
2021/12/18 00:46:25;;;;;;;7.27;4.93;;;6.60;68.50;;;;;;4994385;28;20096;-65
2021/12/18 00:48:51;;;;;;;7.07;5.00;;;6.50;68.00;;;;;;4994671;28;20041;-65
2021/12/18 00:51:17;;;;;;;9.13;4.77;;;6.50;68.30;;;;;;4994567;28;20030;-67
2021/12/18 00:53:43;;;;;;;7.57;4.50;;;6.50;68.20;;;;;;4994579;28;20419;-66
2021/12/18 00:56:08;;;;;;;8.10;4.93;;;6.50;68.20;;;;;;4994341;28;20034;-66
2021/12/18 00:58:34;;;;;;;7.80;5.03;;;6.40;68.30;;;;;;4994428;28;20471;-67
2021/12/18 01:01:00;;;;;;;9.00;4.87;;;6.40;68.30;;;;;;4994130;28;20482;-67
2021/12/18 01:03:26;;;;;;;8.43;5.17;;;6.30;68.80;;;;;;4994443;28;20033;-66
2021/12/18 01:05:51;;;;;;;7.33;5.00;;;6.20;68.80;;;;;;4994412;28;20383;-65
2021/12/18 01:08:18;;;;;;;7.83;5.17;;;6.20;69.30;;;;;;4993980;28;20057;-66
2021/12/18 01:11:10;;;;;;;7.77;5.23;;;6.10;69.30;;;;;;4994271;28;20023;-66
2021/12/18 01:13:42;;;;;;;8.93;5.60;;;6.00;69.90;;;;;;4993968;28;20513;-66
2021/12/18 01:16:16;;;;;;;7.40;5.00;;;5.90;70.60;;;;;;4994236;28;20030;-66
2021/12/18 01:24:10;;;;;;;6.67;4.87;;;5.70;71.40;;;;;;4993903;28;20038;-66
2021/12/18 01:26:36;;;;;;;10.17;5.30;;;5.60;71.30;;;;;;4993779;28;20026;-66
2021/12/18 01:29:02;;;;;;;7.17;5.47;;;5.60;72.00;;;;;;4993680;28;20042;-66
2021/12/18 01:31:29;;;;;;;7.77;5.50;;;5.60;72.30;;;;;;4993557;28;20042;-66
2021/12/18 01:33:54;;;;;;;9.57;6.53;;;5.50;71.80;;;;;;4993405;28;20046;-65
2021/12/18 01:36:21;;;;;;;8.77;5.50;;;5.50;72.00;;;;;;4993893;28;20364;-66
2021/12/18 01:38:47;;;;;;;9.30;5.77;;;5.50;71.70;;;;;;4994080;28;20034;-66
2021/12/18 01:41:15;;;;;;;7.83;5.53;;;5.40;72.50;;;;;;4993815;28;20049;-66
2021/12/18 01:52:00;;;;;;;10.63;6.30;;;4.90;73.70;;;;;;4993880;28;20406;-66
2021/12/18 01:54:27;;;;;;;9.37;5.93;;;4.80;74.50;;;;;;4993782;28;20606;-66
2021/12/18 01:56:53;;;;;;;8.67;5.57;;;4.70;74.80;;;;;;4993330;28;20102;-67
2021/12/18 01:59:36;;;;;;;12.53;7.93;;;4.60;75.40;;;;;;4990525;28;20161;-66
2021/12/18 02:02:03;;;;;;;14.13;9.93;;;4.40;75.70;;;;;;4990497;28;20536;-66
2021/12/18 02:04:29;;;;;;;13.70;8.83;;;4.30;76.00;;;;;;4991590;28;20398;-66
2021/12/18 02:06:55;;;;;;;14.73;9.10;;;4.30;77.20;;;;;;4992990;28;20037;-66
2021/12/18 02:09:25;;;;;;;12.00;7.70;;;4.20;77.00;;;;;;4993215;28;20035;-66
2021/12/18 02:11:52;;;;;;;11.47;7.00;;;4.10;77.40;;;;;;4993342;28;20022;-66
2021/12/18 02:19:32;;;;;;;12.20;7.43;;;4.10;78.70;;;;;;4992916;28;20483;-66
2021/12/18 02:20:55;;;;;;;10.50;7.00;;;3.90;78.40;;;;;;4993079;28;20073;-65
2021/12/18 02:22:56;;;;;;;11.00;6.97;;;3.90;78.70;;;;;;4982526;28;20034;-66
2021/12/18 02:25:24;;;;;;;10.40;6.63;;;3.80;79.00;;;;;;4993206;28;20033;-66
2021/12/18 02:27:52;;;;;;;15.80;6.97;;;3.60;80.10;;;;;;4992748;28;20105;-66
2021/12/18 02:30:21;;;;;;;11.47;7.10;;;3.60;81.00;;;;;;4994918;28;20026;-66
2021/12/18 02:32:48;;;;;;;12.73;6.80;;;3.50;80.80;;;;;;4996611;28;20034;-65
2021/12/18 02:35:43;;;;;;;11.87;6.53;;;3.50;81.40;;;;;;4996499;28;20062;-66
2021/12/18 02:39:00;;;;;;;11.03;6.47;;;3.40;80.90;;;;;;4997110;28;20142;-65
2021/12/18 02:41:40;;;;;;;11.40;7.10;;;3.40;82.10;;;;;;4996981;28;20030;-65
2021/12/18 02:44:09;;;;;;;11.00;6.80;;;3.40;81.70;;;;;;4996561;28;20023;-65
2021/12/18 02:46:36;;;;;;;11.10;5.97;;;3.40;80.80;;;;;;4996800;28;20034;-66
2021/12/18 02:49:08;;;;;;;10.03;5.90;;;3.40;81.20;;;;;;4996651;28;20046;-66
2021/12/18 02:51:34;;;;;;;10.47;6.67;;;3.40;80.70;;;;;;4996520;28;20026;-66
2021/12/18 02:53:59;;;;;;;9.50;6.30;;;3.40;80.20;;;;;;4996542;28;20045;-66
2021/12/18 02:56:25;;;;;;;18.33;6.40;;;3.40;80.70;;;;;;4996702;28;20382;-66
2021/12/18 02:59:04;;;;;;;11.50;6.70;;;3.40;80.10;;;;;;4996727;28;20026;-66
2021/12/18 03:01:31;;;;;;;11.27;6.90;;;3.50;80.10;;;;;;4996689;28;20037;-66
2021/12/18 03:03:59;;;;;;;9.30;6.43;;;3.40;80.70;;;;;;4979164;28;20030;-66
2021/12/18 03:27:21;;;;;;;10.23;6.83;;;3.00;80.70;;;;;;4996499;28;20489;-66
2021/12/18 03:29:46;;;;;;;11.30;6.60;;;2.90;81.00;;;;;;4995968;28;20085;-66
2021/12/18 03:32:12;;;;;;;11.30;7.30;;;2.80;82.20;;;;;;4996223;28;20501;-66
2021/12/18 03:34:38;;;;;;;9.20;6.47;;;2.70;82.50;;;;;;4995996;28;20050;-66
2021/12/18 03:37:05;;;;;;;11.90;6.87;;;2.70;83.40;;;;;;4995982;28;20379;-65
2021/12/18 03:39:31;;;;;;;9.83;6.57;;;2.80;82.90;;;;;;4996118;28;20157;-65
2021/12/18 03:41:57;;;;;;;9.27;6.53;;;2.80;82.60;;;;;;4994535;28;20514;-65
2021/12/18 03:44:23;;;;;;;10.23;6.77;;;2.80;82.90;;;;;;4995891;28;20029;-67
2021/12/18 03:46:50;;;;;;;8.57;6.10;;;2.70;82.00;;;;;;4995998;28;20027;-65
2021/12/18 03:49:16;;;;;;;10.50;7.17;;;2.60;81.60;;;;;;4995500;28;20026;-65
2021/12/18 03:51:41;;;;;;;10.27;6.93;;;2.50;82.60;;;;;;4995354;28;20048;-65
2021/12/18 03:54:07;;;;;;;11.80;6.83;;;2.50;83.50;;;;;;4995250;28;20502;-66
2021/12/18 03:56:33;;;;;;;12.10;6.67;;;2.60;82.90;;;;;;4995614;28;20022;-66
2021/12/18 03:58:59;;;;;;;9.37;6.63;;;2.70;82.50;;;;;;4995509;28;20029;-65
2021/12/18 04:01:25;;;;;;;9.40;6.67;;;2.60;82.70;;;;;;4995469;28;20438;-65
2021/12/18 04:03:51;;;;;;;9.97;6.70;;;2.60;82.30;;;;;;4995207;28;20023;-66
2021/12/18 04:06:18;;;;;;;10.97;6.83;;;2.50;82.50;;;;;;4995473;28;20030;-65
2021/12/18 04:08:43;;;;;;;11.13;6.30;;;2.50;83.30;;;;;;4995502;28;20019;-65
2021/12/18 04:11:10;;;;;;;14.23;7.10;;;2.40;83.50;;;;;;4995160;28;20027;-65
2021/12/18 04:13:36;;;;;;;12.80;6.80;;;2.40;84.10;;;;;;4995087;28;20030;-65
2021/12/18 04:16:02;;;;;;;12.33;7.30;;;2.50;83.90;;;;;;4995293;28;20019;-65
2021/12/18 04:18:28;;;;;;;11.80;7.43;;;2.50;83.90;;;;;;4995398;28;20019;-66
2021/12/18 04:20:54;;;;;;;16.27;7.80;;;2.40;83.40;;;;;;4993175;28;20030;-66
2021/12/18 04:23:20;;;;;;;11.57;7.67;;;2.30;84.40;;;;;;4992576;28;20030;-66
2021/12/18 04:25:46;;;;;;;13.03;7.03;;;2.30;84.50;;;;;;4993412;28;20022;-65
2021/12/18 04:28:12;;;;;;;11.37;7.33;;;2.30;85.30;;;;;;4995434;28;20565;-66
2021/12/18 04:30:37;;;;;;;13.27;6.27;;;2.40;83.80;;;;;;4994855;28;20379;-65
2021/12/18 04:33:03;;;;;;;11.60;7.37;;;2.40;83.30;;;;;;4994877;28;20082;-65
2021/12/18 04:35:30;;;;;;;9.97;6.80;;;2.30;83.80;;;;;;4995053;28;20033;-66
2021/12/18 04:37:56;;;;;;;11.20;7.07;;;2.40;84.00;;;;;;4994870;28;20030;-66
2021/12/18 04:40:25;;;;;;;11.37;6.53;;;2.40;84.20;;;;;;4995030;28;20543;-66
2021/12/18 04:42:52;;;;;;;8.97;6.07;;;2.40;85.40;;;;;;4995223;28;20076;-66
2021/12/18 04:45:18;;;;;;;8.73;6.10;;;2.40;84.10;;;;;;4994847;28;20018;-66
2021/12/18 04:47:43;;;;;;;10.30;6.30;;;2.30;85.00;;;;;;4994559;28;20064;-66
2021/12/18 04:50:10;;;;;;;9.57;5.80;;;2.30;85.00;;;;;;4994555;28;20082;-66
2021/12/18 04:52:35;;;;;;;7.93;5.83;;;2.30;85.10;;;;;;4994438;28;20034;-66
2021/12/18 04:55:02;;;;;;;12.40;5.93;;;2.20;85.40;;;;;;4994536;28;20037;-67
2021/12/18 04:57:28;;;;;;;10.73;5.90;;;2.40;85.10;;;;;;4994823;28;20023;-67
2021/12/18 04:59:54;;;;;;;10.77;5.93;;;2.40;84.70;;;;;;4994782;28;20434;-66
2021/12/18 05:02:24;;;;;;;11.63;7.07;;;2.40;84.50;;;;;;4976984;28;20018;-66
2021/12/18 05:04:52;;;;;;;14.67;8.73;;;2.40;85.10;;;;;;4994711;28;20018;-66
2021/12/18 05:07:18;;;;;;;12.13;8.50;;;2.50;86.10;;;;;;4994674;28;20054;-66
2021/12/18 05:09:44;;;;;;;14.43;8.43;;;2.50;86.30;;;;;;4994260;28;20057;-66
2021/12/18 05:12:11;;;;;;;12.93;8.30;;;2.60;85.60;;;;;;4994348;28;20429;-66
2021/12/18 05:14:36;;;;;;;12.10;8.00;;;2.70;85.80;;;;;;4994129;28;20037;-66
2021/12/18 05:17:02;;;;;;;12.77;7.83;;;2.70;85.20;;;;;;4994125;28;20023;-66
2021/12/18 05:19:28;;;;;;;12.67;7.97;;;2.70;84.80;;;;;;4994345;28;20054;-67
2021/12/18 05:21:54;;;;;;;11.73;7.50;;;2.70;84.90;;;;;;4994052;28;20489;-66
2021/12/18 05:24:19;;;;;;;12.10;6.77;;;2.60;84.60;;;;;;4994184;28;20061;-67
2021/12/18 05:26:45;;;;;;;12.60;7.10;;;2.50;84.60;;;;;;4993948;28;20105;-66
2021/12/18 05:29:10;;;;;;;10.40;7.03;;;2.50;85.50;;;;;;4994285;28;20026;-66
2021/12/18 05:31:36;;;;;;;10.13;6.60;;;2.50;86.30;;;;;;4993986;28;20142;-67
2021/12/18 05:34:04;;;;;;;12.47;6.60;;;2.50;86.10;;;;;;4993933;28;20054;-66
2021/12/18 05:39:08;;;;;;;10.33;6.30;;;2.50;84.90;;;;;;4994088;28;20050;-67
2021/12/18 05:41:35;;;;;;;11.13;6.37;;;2.60;85.20;;;;;;4993920;28;20482;-69
2021/12/18 05:44:01;;;;;;;9.97;6.67;;;2.60;85.40;;;;;;4993641;28;20054;-67
2021/12/18 05:46:27;;;;;;;11.13;7.40;;;2.50;85.30;;;;;;4994030;28;20100;-71
2021/12/18 05:48:53;;;;;;;12.30;8.03;;;2.60;84.50;;;;;;4993864;28;20034;-66
2021/12/18 05:51:18;;;;;;;16.60;8.20;;;2.70;84.00;;;;;;4993924;28;20026;-66
2021/12/18 05:53:44;;;;;;;12.90;8.07;;;2.90;83.10;;;;;;4993572;28;20039;-66
2021/12/18 05:56:10;;;;;;;16.10;7.53;;;2.90;83.10;;;;;;4994072;28;20023;-66
2021/12/18 05:58:36;;;;;;;14.60;8.03;;;2.90;83.10;;;;;;4993678;28;20022;-66
2021/12/18 06:01:02;;;;;;;19.03;8.73;;;2.90;83.20;;;;;;4993477;28;20486;-69
2021/12/18 06:03:28;;;;;;;12.57;7.97;;;2.90;83.10;;;;;;4993681;28;20026;-66
2021/12/18 06:05:53;;;;;;;12.90;7.57;;;2.80;82.50;;;;;;4996408;28;20072;-66
2021/12/18 06:08:19;;;;;;;11.97;7.73;;;2.60;83.40;;;;;;4997656;28;20026;-66
2021/12/18 06:10:45;;;;;;;12.07;7.50;;;2.60;84.40;;;;;;4997625;28;20467;-66
2021/12/18 06:13:10;;;;;;;12.43;7.40;;;2.60;84.00;;;;;;4997429;28;20023;-68
2021/12/18 06:15:36;;;;;;;13.43;7.40;;;2.50;83.80;;;;;;4997459;28;20030;-67
2021/12/18 06:18:02;;;;;;;13.87;7.50;;;2.50;84.40;;;;;;4997350;28;20023;-66
2021/12/18 06:20:29;;;;;;;14.53;7.87;;;2.60;83.90;;;;;;4997406;28;20030;-67
2021/12/18 06:22:55;;;;;;;23.67;7.47;;;2.60;83.50;;;;;;4997536;28;20129;-66
2021/12/18 06:25:21;;;;;;;10.30;7.03;;;2.60;83.10;;;;;;4997199;28;20030;-66
2021/12/18 06:27:47;;;;;;;11.70;6.90;;;2.50;83.50;;;;;;4997509;28;20049;-66
2021/12/18 06:30:14;;;;;;;10.87;7.03;;;2.50;84.20;;;;;;4997515;28;20352;-66
2021/12/18 06:32:40;;;;;;;13.47;7.70;;;2.40;84.20;;;;;;4997164;28;20018;-68
2021/12/18 06:35:07;;;;;;;17.13;7.73;;;2.30;85.10;;;;;;4997131;28;20562;-67
2021/12/18 06:37:33;;;;;;;17.23;7.30;;;2.30;85.30;;;;;;4997145;28;20026;-65
2021/12/18 06:39:59;;;;;;;18.87;7.27;;;2.30;84.60;;;;;;4996270;28;20479;-67
2021/12/18 06:42:24;;;;;;;13.77;7.20;;;2.30;84.70;;;;;;4996655;28;20062;-66
2021/12/18 06:44:50;;;;;;;13.83;7.57;;;2.20;84.90;;;;;;4996979;28;20026;-66
2021/12/18 06:47:16;;;;;;;15.80;7.73;;;2.20;84.70;;;;;;4996889;28;20026;-68
2021/12/18 06:49:42;;;;;;;16.13;7.27;;;2.10;85.20;;;;;;4996884;28;20084;-66
2021/12/18 06:52:07;;;;;;;11.73;7.63;;;2.20;85.70;;;;;;4997089;28;20030;-66
2021/12/18 06:54:33;;;;;;;13.43;7.23;;;2.20;85.10;;;;;;4996913;28;20034;-66
2021/12/18 06:56:59;;;;;;;16.30;7.37;;;2.10;84.00;;;;;;4995898;28;20050;-67
2021/12/18 06:59:25;;;;;;;15.53;7.90;;;2.30;83.50;;;;;;4995801;28;20070;-67
2021/12/18 07:01:52;;;;;;;14.07;7.70;;;2.40;82.50;;;;;;4996453;28;20033;-66
2021/12/18 07:04:19;;;;;;;20.07;7.90;;;2.40;81.80;;;;;;4996073;28;20073;-67
2021/12/18 07:06:45;;;;;;;15.83;7.47;;;2.30;82.30;;;;;;4995774;28;20034;-66
2021/12/18 07:09:11;;;;;;;14.37;7.63;;;2.20;82.90;;;;;;4994770;28;20394;-66
2021/12/18 07:11:36;;;;;;;16.00;8.73;;;2.30;82.20;;;;;;4996051;28;20027;-65
2021/12/18 07:14:02;;;;;;;17.90;10.07;;;2.30;82.40;;;;;;4996282;28;20034;-66
2021/12/18 07:16:28;;;;;;;17.13;9.20;;;2.30;82.80;;;;;;4994701;28;20027;-65
2021/12/18 07:18:53;;;;;;;22.20;11.63;;;2.20;83.50;;;;;;4977223;28;20057;-66
2021/12/18 07:21:19;;;;;;;23.20;14.03;;;2.20;84.10;;;;;;4994977;28;20030;-66
2021/12/18 07:23:45;;;;;;;19.47;13.00;;;2.10;84.50;;;;;;4994821;28;20410;-65
2021/12/18 07:26:12;;;;;;;18.90;11.27;;;2.10;85.20;;;;;;4992898;28;20030;-65
2021/12/18 07:28:38;;;;;;;19.63;10.90;;;2.10;85.30;;;;;;4993410;28;20046;-70
2021/12/18 07:31:04;;;;;;;20.60;11.00;;;2.20;85.60;;;;;;4993627;28;20026;-67
2021/12/18 07:33:30;;;;;;;15.63;10.13;;;2.10;85.70;;;;;;4995320;28;20066;-67
2021/12/18 07:35:56;;;;;;;22.07;12.73;;;2.20;85.80;;;;;;4995495;28;20097;-69
2021/12/18 07:38:21;;;;;;;19.07;12.80;;;2.10;85.40;;;;;;4994861;28;20050;-66
2021/12/18 07:40:47;;;;;;;24.00;12.30;;;2.20;86.70;;;;;;4994313;28;20073;-65
2021/12/18 07:43:13;;;;;;;22.53;13.70;;;2.30;86.60;;;;;;4995012;28;20394;-68
2021/12/18 07:45:39;;;;;;;20.00;12.33;;;2.40;86.00;;;;;;4976445;28;20078;-68
2021/12/18 07:48:05;;;;;;;18.50;12.00;;;2.60;85.70;;;;;;4993549;28;20050;-68
2021/12/18 07:50:31;;;;;;;23.93;12.93;;;2.70;85.30;;;;;;4993662;28;20111;-69
2021/12/18 07:52:57;;;;;;;22.73;12.97;;;2.90;85.10;;;;;;4994258;28;20061;-67
2021/12/18 07:55:23;;;;;;;20.30;11.97;;;3.20;83.90;;;;;;4991132;28;20399;-68
2021/12/18 07:57:51;;;;;;;20.97;12.37;;;3.30;83.20;;;;;;4994041;28;20034;-68
2021/12/18 08:00:18;;;;;;;23.67;13.30;;;3.50;83.30;;;;;;4994082;28;20014;-68
2021/12/18 08:02:43;;;;;;;22.03;11.90;;;3.50;82.80;;;;;;4993116;28;20029;-67
2021/12/18 08:05:10;;;;;;;19.90;11.27;;;3.60;83.20;;;;;;4974952;28;20035;-67
2021/12/18 08:07:36;;;;;;;18.47;11.77;;;3.70;82.80;;;;;;4991834;28;20026;-66
2021/12/18 08:10:02;;;;;;;19.40;12.20;;;3.90;82.30;;;;;;4994068;28;20376;-67
2021/12/18 08:12:28;;;;;;;21.03;11.67;;;3.90;82.90;;;;;;4993354;28;20438;-68
2021/12/18 08:14:55;;;;;;;22.97;12.37;;;4.10;82.10;;;;;;4993511;28;20022;-68
2021/12/18 08:17:22;;;;;;;22.03;12.00;;;4.20;82.50;;;;;;4993406;28;20434;-68
2021/12/18 08:19:48;;;;;;;20.63;12.47;;;4.30;82.50;;;;;;4993401;28;20026;-67
2021/12/18 08:22:13;;;;;;;19.27;11.73;;;4.40;82.50;;;;;;4993329;28;20110;-68
2021/12/18 08:24:39;;;;;;;17.90;10.83;;;4.50;81.60;;;;;;4993542;28;20116;-68
2021/12/18 08:27:05;;;;;;;20.03;9.80;;;4.70;80.90;;;;;;4993140;28;20064;-69
2021/12/18 08:29:31;;;;;;;16.03;8.87;;;4.80;80.80;;;;;;4993469;28;20026;-67
2021/12/18 08:31:57;;;;;;;15.13;9.80;;;4.90;79.70;;;;;;4993214;28;20517;-68
2021/12/18 08:34:25;;;;;;;12.40;8.40;;;5.10;78.50;;;;;;4992906;28;20086;-68
2021/12/18 08:36:51;;;;;;;12.60;8.27;;;5.20;77.90;;;;;;4993012;28;20018;-68
2021/12/18 08:39:17;;;;;;;13.00;8.10;;;5.20;77.10;;;;;;4993564;28;20055;-67
2021/12/18 08:41:45;;;;;;;15.93;8.03;;;5.30;77.50;;;;;;4993640;28;20049;-67
2021/12/18 08:44:11;;;;;;;13.53;7.97;;;5.40;76.90;;;;;;4993889;28;20529;-67
2021/12/18 08:46:37;;;;;;;11.53;8.17;;;5.50;76.90;;;;;;4992877;28;20022;-67
2021/12/18 08:49:03;;;;;;;19.17;8.63;;;5.50;76.40;;;;;;4990781;28;20109;-67
2021/12/18 08:51:29;;;;;;;17.73;8.30;;;5.60;76.60;;;;;;4990466;28;20097;-67
2021/12/18 08:53:54;;;;;;;15.97;8.30;;;5.70;75.80;;;;;;4991326;28;20084;-66
2021/12/18 08:56:20;;;;;;;14.50;8.00;;;5.80;75.60;;;;;;4992974;28;20397;-67
2021/12/18 08:58:46;;;;;;;11.40;7.83;;;5.80;75.70;;;;;;4992926;28;20022;-67
2021/12/18 09:01:11;;;;;;;14.30;7.37;;;5.90;75.20;;;;;;4992569;28;20498;-66
2021/12/18 09:03:37;;;;;;;10.83;7.50;;;6.00;74.90;;;;;;4993492;28;20437;-68
2021/12/18 09:06:03;;;;;;;12.73;7.17;;;6.00;74.30;;;;;;4993791;28;20416;-67
2021/12/18 09:08:29;;;;;;;14.30;7.67;;;6.10;74.00;;;;;;4993187;28;20039;-67
2021/12/18 09:10:55;;;;;;;12.57;8.30;;;6.20;73.60;;;;;;4992495;28;20022;-67
2021/12/18 09:13:20;;;;;;;11.40;7.27;;;6.30;73.50;;;;;;4991760;28;20050;-67
2021/12/18 09:15:46;;;;;;;10.50;7.47;;;6.40;72.90;;;;;;4990887;28;20030;-68
2021/12/18 09:18:12;;;;;;;12.93;7.50;;;6.50;72.30;;;;;;4991500;28;20038;-69
2021/12/18 09:20:41;;;;;;;18.53;9.50;;;6.60;71.90;;;;;;4993252;28;20471;-67
2021/12/18 09:23:07;;;;;;;29.37;18.10;;;6.70;71.70;;;;;;4993649;28;20026;-68
2021/12/18 09:25:33;;;;;;;34.57;19.33;;;6.70;71.10;;;;;;4992170;28;20033;-68
2021/12/18 09:27:59;;;;;;;34.80;19.50;;;6.80;70.70;;;;;;4992487;28;20022;-67
2021/12/18 09:30:25;;;;;;;34.83;21.40;;;6.90;70.30;;;;;;4993616;28;20037;-68
2021/12/18 09:32:51;;;;;;;35.13;17.63;;;7.00;70.10;;;;;;4992948;28;20022;-67
2021/12/18 09:35:18;;;;;;;33.80;17.47;;;7.10;69.80;;;;;;4992397;28;20050;-68
2021/12/18 09:37:44;;;;;;;23.53;13.93;;;7.10;69.80;;;;;;4993613;28;20034;-68
2021/12/18 09:40:11;;;;;;;17.73;11.90;;;7.20;69.60;;;;;;4993115;28;20049;-67
2021/12/18 09:42:38;;;;;;;20.63;13.20;;;7.20;68.70;;;;;;4993849;28;20058;-68
2021/12/18 09:45:07;;;;;;;16.73;11.17;;;7.30;68.70;;;;;;4993990;28;20105;-68
2021/12/18 09:47:32;;;;;;;18.53;11.00;;;7.40;68.80;;;;;;4976294;28;20423;-68
2021/12/18 09:49:59;;;;;;;19.63;11.07;;;7.40;68.40;;;;;;4993703;28;20031;-67
2021/12/18 09:52:25;;;;;;;17.63;11.33;;;7.50;68.30;;;;;;4993372;28;20018;-68
2021/12/18 09:54:59;;;;;;;18.07;11.37;;;7.50;68.10;;;;;;4993567;28;20030;-68
2021/12/18 09:57:25;;;;;;;14.10;9.10;;;7.60;68.00;;;;;;4993719;28;20033;-68
2021/12/18 09:59:51;;;;;;;14.27;9.23;;;7.70;67.70;;;;;;4993453;28;20034;-68
2021/12/18 10:02:17;;;;;;;19.50;10.93;;;7.70;67.70;;;;;;4993621;28;20023;-68
2021/12/18 10:04:44;;;;;;;20.40;12.53;;;7.80;67.60;;;;;;4993749;28;20116;-68
2021/12/18 10:07:16;;;;;;;22.73;14.30;;;7.80;67.30;;;;;;4993539;28;20027;-68
2021/12/18 10:09:43;;;;;;;23.37;14.33;;;7.90;67.40;;;;;;4993674;28;20027;-68
2021/12/18 10:12:19;;;;;;;38.83;24.60;;;7.90;67.10;;;;;;4993410;28;20018;-68
2021/12/18 10:14:55;;;;;;;26.97;18.03;;;8.00;66.80;;;;;;4993275;28;20042;-68
2021/12/18 10:17:31;;;;;;;19.10;11.93;;;8.10;66.90;;;;;;4993562;28;20026;-68
2021/12/18 10:20:21;;;;;;;15.70;10.27;;;8.10;66.20;;;;;;4993636;28;20030;-68
2021/12/18 10:22:56;;;;;;;15.60;9.27;;;8.20;66.00;;;;;;4993227;28;20475;-69
2021/12/18 10:25:25;;;;;;;16.30;8.67;;;8.30;65.90;;;;;;4975770;28;20435;-68
2021/12/18 10:28:03;;;;;;;14.30;8.77;;;8.40;66.00;;;;;;4975728;28;20018;-69
2021/12/18 10:30:31;;;;;;;13.67;8.67;;;8.40;65.60;;;;;;4993250;28;20057;-68
2021/12/18 10:33:07;;;;;;;15.13;8.50;;;8.50;64.60;;;;;;4993356;28;20125;-68
2021/12/18 10:35:57;;;;;;;14.20;8.90;;;8.50;63.90;;;;;;4993146;28;20042;-68
2021/12/18 10:38:47;;;;;;;16.37;10.40;;;8.60;63.60;;;;;;4983846;28;20038;-68
2021/12/18 10:41:34;;;;;;;16.13;10.07;;;8.60;62.80;;;;;;4993404;28;20030;-68
2021/12/18 10:44:07;;;;;;;17.97;10.53;;;8.70;62.90;;;;;;4992860;28;20023;-68
2021/12/18 10:46:36;;;;;;;16.87;9.57;;;8.80;62.90;;;;;;4993344;28;20427;-68
2021/12/18 10:49:07;;;;;;;13.90;9.47;;;8.90;61.90;;;;;;4993287;28;20107;-68
2021/12/18 10:51:35;;;;;;;15.33;9.03;;;9.00;62.00;;;;;;4995199;28;20033;-68
2021/12/18 10:54:16;;;;;;;14.37;8.77;;;9.10;62.60;;;;;;4996793;28;20031;-68
2021/12/18 10:56:44;;;;;;;12.97;9.17;;;9.10;62.20;;;;;;4996993;28;20018;-68
2021/12/18 10:59:25;;;;;;;15.10;8.87;;;9.20;61.40;;;;;;4996545;28;20069;-68
2021/12/18 11:01:52;;;;;;;12.87;7.83;;;9.30;60.90;;;;;;4997049;28;20037;-68
2021/12/18 11:04:27;;;;;;;12.07;8.27;;;9.30;61.20;;;;;;4996733;28;20034;-68
2021/12/18 11:06:54;;;;;;;10.60;7.30;;;9.40;61.50;;;;;;4996280;28;20022;-68
2021/12/18 11:09:29;;;;;;;12.23;6.83;;;9.50;61.00;;;;;;4996658;28;20033;-68
2021/12/18 11:14:41;;;;;;;11.13;6.70;;;9.70;60.10;;;;;;4996297;28;20125;-68
2021/12/18 11:17:12;;;;;;;15.47;8.50;;;9.70;59.50;;;;;;4996560;28;20109;-67
2021/12/18 11:19:39;;;;;;;12.67;7.20;;;9.80;59.70;;;;;;4996500;28;20089;-68
2021/12/18 11:22:10;;;;;;;10.03;6.20;;;9.80;59.30;;;;;;4996094;28;20034;-68
2021/12/18 11:24:45;;;;;;;10.23;6.87;;;9.90;59.50;;;;;;4996432;28;20081;-68
2021/12/18 11:27:13;;;;;;;11.70;6.90;;;10.00;59.40;;;;;;4996307;28;20027;-68
2021/12/18 11:29:45;;;;;;;16.63;10.00;;;10.10;59.50;;;;;;4995431;28;20047;-68
2021/12/18 11:32:16;;;;;;;13.27;8.17;;;10.10;59.00;;;;;;4996233;28;20022;-68
2021/12/18 11:34:43;;;;;;;12.03;6.37;;;10.20;58.10;;;;;;4995721;28;20285;-68
2021/12/18 11:37:11;;;;;;;10.63;7.47;;;10.30;58.40;;;;;;4995611;28;20034;-68
2021/12/18 11:39:39;;;;;;;10.47;5.97;;;10.30;58.10;;;;;;4995802;28;20030;-68
2021/12/18 11:42:06;;;;;;;9.77;6.03;;;10.40;58.30;;;;;;4995833;28;20098;-68
2021/12/18 11:44:36;;;;;;;9.33;5.83;;;10.50;57.50;;;;;;4995501;28;20145;-68
2021/12/18 11:47:24;;;;;;;8.03;4.90;;;10.50;57.00;;;;;;4994138;28;20424;-68
2021/12/18 11:49:51;;;;;;;7.53;4.93;;;10.60;56.60;;;;;;4993800;28;20471;-67
2021/12/18 11:52:16;;;;;;;6.53;3.65;;;10.70;56.20;;;;;;4993570;28;20061;-68
2021/12/18 11:54:49;;;;;;;8.00;4.23;;;10.70;54.50;;;;;;4995339;28;20034;-69
2021/12/18 11:57:40;;;;;;;10.55;5.50;;;10.70;54.90;;;;;;4978078;28;20030;-69
2021/12/18 12:00:17;;;;;;;10.40;5.57;;;10.70;55.80;;;;;;4995524;28;20027;-68
2021/12/18 12:02:50;;;;;;;8.10;5.33;;;10.70;54.30;;;;;;4994392;28;20037;-68
2021/12/18 12:05:16;;;;;;;;;;;10.70;53.70;;;;;;4995672;28;20149;-69
2021/12/18 12:07:44;;;;;;;7.50;4.97;;;10.70;54.70;;;;;;4995508;28;19905;-69
2021/12/18 12:10:46;;;;;;;9.33;5.27;;;10.80;55.30;;;;;;4995258;28;20479;-68
2021/12/18 12:13:09;;;;;;;8.88;5.93;;;10.80;54.40;;;;;;4994875;28;20042;-68
2021/12/18 12:15:49;;;;;;;10.40;5.85;;;10.80;54.80;;;;;;4994817;28;20023;-68
2021/12/18 12:18:15;;;;;;;8.90;5.80;;;10.80;54.60;;;;;;4993737;28;20073;-68
2021/12/18 12:20:50;;;;;;;11.13;5.22;;;10.90;54.80;;;;;;4977110;28;20105;-68
2021/12/18 12:23:16;;;;;;;9.25;5.57;;;10.90;54.80;;;;;;4994617;28;20030;-68
2021/12/18 12:25:42;;;;;;;15.53;5.47;;;10.90;54.80;;;;;;4994420;28;20023;-68
2021/12/18 12:28:23;;;;;;;8.00;5.22;;;10.90;55.50;;;;;;4994711;28;20034;-68
2021/12/18 12:31:10;;;;;;;10.48;5.53;;;10.90;55.30;;;;;;4994969;28;20026;-67
2021/12/18 12:33:37;;;;;;;9.27;5.55;;;10.90;53.70;;;;;;4994480;28;20499;-68
2021/12/18 12:36:14;;;;;;;12.10;6.18;;;10.90;54.90;;;;;;4995018;28;20029;-68
2021/12/18 12:38:42;;;;;;;12.38;6.30;;;10.90;55.00;;;;;;4994892;28;20403;-68
2021/12/18 12:41:26;;;;;;;10.03;6.10;;;10.90;56.20;;;;;;4995090;28;20073;-68
2021/12/18 12:43:53;;;;;;;10.53;6.43;;;10.90;55.60;;;;;;4995096;28;20018;-68
2021/12/18 12:46:20;;;;;;;9.40;5.60;;;10.90;56.20;;;;;;4994713;28;20065;-68
2021/12/18 12:49:16;;;;;;;11.85;5.70;;;10.90;54.40;;;;;;4994810;28;20153;-67
2021/12/18 12:51:57;;;;;;;10.93;5.33;;;10.90;55.50;;;;;;4994703;28;20026;-68
2021/12/18 12:54:40;;;;;;;10.40;5.50;;;10.90;55.20;;;;;;4994597;28;20129;-68
2021/12/18 12:57:25;;;;;;;8.00;4.85;;;10.90;55.30;;;;;;4994539;28;20068;-68
2021/12/18 13:00:16;;;;;;;7.70;4.50;;;10.90;55.00;;;;;;4994854;28;20073;-68
2021/12/18 13:02:58;;;;;;;8.55;4.05;;;10.90;54.40;;;;;;4994580;28;20058;-67
2021/12/18 13:05:26;;;;;;;8.07;4.17;;;10.80;53.90;;;;;;4977019;28;20027;-67
2021/12/18 13:07:54;;;;;;;9.80;4.80;;;10.80;55.60;;;;;;4994386;28;20121;-68
2021/12/18 13:10:23;;;;;;;11.30;4.70;;;10.70;55.10;;;;;;4994467;28;20109;-68
2021/12/18 13:12:52;;;;;;;8.43;4.37;;;10.70;55.60;;;;;;4994150;28;20052;-67
2021/12/18 13:15:18;;;;;;;8.07;4.43;;;10.70;55.60;;;;;;4994193;28;20082;-68
2021/12/18 13:17:44;;;;;;;6.97;4.30;;;10.70;54.60;;;;;;4994340;28;20031;-68
2021/12/18 13:20:10;;;;;;;6.68;3.97;;;10.70;54.60;;;;;;4994233;28;20482;-67
2021/12/18 13:22:36;;;;;;;8.10;4.60;;;10.60;55.20;;;;;;4994148;28;20032;-68
2021/12/18 13:25:05;;;;;;;7.53;3.93;;;10.70;55.40;;;;;;4994230;28;20486;-68
2021/12/18 13:27:32;;;;;;;6.35;4.00;;;10.70;56.10;;;;;;4994289;28;20031;-67
2021/12/18 13:30:21;;;;;;;4.68;3.58;;;10.70;56.00;;;;;;4994084;28;20034;-68
2021/12/18 13:32:50;;;;;;;5.43;3.58;;;10.70;54.90;;;;;;4993846;28;20113;-68
2021/12/18 13:35:17;;;;;;;7.63;4.00;;;10.70;56.00;;;;;;4993952;28;20053;-67
2021/12/18 13:37:52;;;;;;;5.70;4.00;;;10.70;56.60;;;;;;4994065;28;20076;-68
2021/12/18 13:40:18;;;;;;;57.53;34.60;;;10.70;55.10;;;;;;4994170;28;20035;-67